Tuttle, Idaho
Current Conditions -  °F | °C
As of 7:02 AM on Sunday 21 Dec 2014 (Local Time) from KJER Reporting Station
Light Rain Light Rain  
Wind Chill: 34°   Ceiling: 2700
Heat Index: 43°   Visibility: 10mi
Dew Point: 40°   Wind: 22mph
Humidity: 89%   Direction: 230°SW
Pressure: 29.84"   Gusts: 29mph
Location:  43.0634°N, 114.867°W
Report Text: KJER 211402Z AUTO 23019G25KT 10SM -RA BKN027 OVC034 06/04 A2984 RMK AO2 P0000 T00610044
Loading
Personal Weather Stations






























Interactive Weather Map New forecast layout! Learn more

10-Day Weather Forecast

Advertisements
Track Severe Weather on mobile